createdAt,value
2022-11-17T00:00:39.949Z,99001.97
2022-11-17T00:03:06.482Z,98996.00
2022-11-17T00:05:35.494Z,98989.16
2022-11-17T00:08:02.589Z,98980.72
2022-11-17T00:10:29.167Z,98969.44
2022-11-17T00:13:14.483Z,98960.13
2022-11-17T00:15:43.991Z,98956.66
2022-11-17T00:18:29.220Z,98943.69
2022-11-17T00:21:14.358Z,98945.34
2022-11-17T00:23:50.599Z,98930.81
2022-11-17T00:26:19.430Z,98924.78
2022-11-17T00:28:46.120Z,98909.53
2022-11-17T00:31:32.940Z,98899.38
2022-11-17T00:34:06.535Z,98889.06
2022-11-17T00:36:35.962Z,98883.91
2022-11-17T00:39:04.234Z,98863.31
2022-11-17T00:41:30.953Z,98880.53
2022-11-17T00:43:57.847Z,98859.13
2022-11-17T00:46:24.633Z,98868.38
2022-11-17T00:48:51.464Z,98853.03
2022-11-17T00:51:19.168Z,98841.91
2022-11-17T00:53:46.251Z,98823.09
2022-11-17T00:56:13.102Z,98817.94
2022-11-17T00:58:39.789Z,98809.34
2022-11-17T01:01:07.555Z,98796.56
2022-11-17T01:03:35.719Z,98778.63
2022-11-17T01:06:09.409Z,98787.88
2022-11-17T01:08:37.346Z,98762.22
2022-11-17T01:11:06.082Z,98780.94
2022-11-17T01:13:32.959Z,98771.44
2022-11-17T01:16:19.074Z,98766.28
2022-11-17T01:18:48.737Z,98746.63
2022-11-17T01:21:19.364Z,98762.06
2022-11-17T01:23:46.884Z,98742.41
2022-11-17T01:26:16.503Z,98730.28
2022-11-17T01:28:43.496Z,98726.78
2022-11-17T01:31:22.393Z,98705.50
2022-11-17T01:33:49.789Z,98719.19
2022-11-17T01:36:24.638Z,98685.81
2022-11-17T01:38:51.326Z,98697.84
2022-11-17T01:41:26.668Z,98692.63
2022-11-17T01:43:55.408Z,98691.66
2022-11-17T01:46:27.717Z,98695.94
2022-11-17T01:49:03.386Z,98695.13
2022-11-17T01:51:33.376Z,98686.59
2022-11-17T01:54:00.208Z,98682.31
2022-11-17T01:56:34.921Z,98671.06
2022-11-17T01:59:23.464Z,98682.34
2022-11-17T02:01:56.817Z,98662.66
2022-11-17T02:04:26.137Z,98676.13
2022-11-17T02:07:01.266Z,98674.28
2022-11-17T02:09:27.842Z,98659.88
2022-11-17T02:11:59.264Z,98650.31
2022-11-17T02:14:26.312Z,98641.09
2022-11-17T02:16:52.863Z,98640.81
2022-11-17T02:19:24.920Z,98641.75
2022-11-17T02:22:29.480Z,98632.06
2022-11-17T02:25:33.488Z,98627.84
2022-11-17T02:28:17.247Z,98619.31
2022-11-17T02:30:54.132Z,98611.50
2022-11-17T02:33:29.452Z,98611.59
2022-11-17T02:36:10.538Z,98610.69
2022-11-17T02:38:55.864Z,98611.50
2022-11-17T02:41:29.516Z,98603.09
2022-11-17T02:44:46.593Z,98594.28
2022-11-17T02:47:23.805Z,98609.81
2022-11-17T02:50:05.300Z,98601.97
2022-11-17T02:52:31.829Z,98601.03
2022-11-17T02:55:03.522Z,98598.50
2022-11-17T02:57:32.446Z,98599.50
2022-11-17T03:00:06.871Z,98592.53
2022-11-17T03:03:01.129Z,98589.13
2022-11-17T03:05:49.062Z,98585.50
2022-11-17T03:08:45.505Z,98595.03
2022-11-17T03:11:13.438Z,98571.09
2022-11-17T03:14:07.412Z,98584.66
2022-11-17T03:16:39.253Z,98572.63
2022-11-17T03:19:25.009Z,98558.09
2022-11-17T03:22:17.678Z,98555.63
2022-11-17T03:24:50.750Z,98552.78
2022-11-17T03:27:24.008Z,98558.78
2022-11-17T03:29:55.501Z,98567.22
2022-11-17T03:32:23.979Z,98550.16
2022-11-17T03:35:00.061Z,98560.38
2022-11-17T03:37:30.729Z,98538.25
2022-11-17T03:40:06.194Z,98539.94
2022-11-17T03:42:38.033Z,98551.75
2022-11-17T03:45:08.176Z,98546.53
2022-11-17T03:47:35.703Z,98548.22
2022-11-17T03:50:12.240Z,98546.34
2022-11-17T03:52:39.006Z,98533.09
2022-11-17T03:55:06.819Z,98535.50
2022-11-17T03:57:59.666Z,98535.38
2022-11-17T04:00:26.394Z,98545.75
2022-11-17T04:02:58.709Z,98535.31
2022-11-17T04:05:25.846Z,98537.09
2022-11-17T04:07:52.856Z,98537.22
2022-11-17T04:10:22.057Z,98543.16
2022-11-17T04:13:08.198Z,98538.19
2022-11-17T04:15:53.861Z,98531.19
2022-11-17T04:18:21.818Z,98525.19
2022-11-17T04:20:55.850Z,98518.16
2022-11-17T04:23:24.366Z,98519.00
2022-11-17T04:26:11.938Z,98491.09
2022-11-17T04:28:45.694Z,98503.09
2022-11-17T04:31:19.232Z,98516.28
2022-11-17T04:33:54.888Z,98512.09
2022-11-17T04:36:24.712Z,98495.72
2022-11-17T04:38:53.313Z,98505.03
2022-11-17T04:41:39.984Z,98502.56
2022-11-17T04:44:08.594Z,98497.56
2022-11-17T04:46:36.469Z,98494.03
2022-11-17T04:49:04.163Z,98482.81
2022-11-17T04:51:31.779Z,98473.34
2022-11-17T04:53:59.104Z,98463.91
2022-11-17T04:56:26.448Z,98462.84
2022-11-17T04:58:53.980Z,98469.66
2022-11-17T05:01:22.359Z,98466.09
2022-11-17T05:03:50.461Z,98434.13
2022-11-17T05:06:20.546Z,98455.91
2022-11-17T05:08:47.849Z,98454.03
2022-11-17T05:11:33.784Z,98450.63
2022-11-17T05:14:01.076Z,98453.09
2022-11-17T05:16:46.661Z,98433.09
2022-11-17T05:19:16.270Z,98445.41
2022-11-17T05:21:43.289Z,98448.75
2022-11-17T05:24:10.811Z,98442.00
2022-11-17T05:26:38.731Z,98451.00
2022-11-17T05:29:07.499Z,98434.06
2022-11-17T05:31:34.775Z,98444.25
2022-11-17T05:34:02.459Z,98444.16
2022-11-17T05:36:30.068Z,98421.13
2022-11-17T05:38:57.298Z,98434.66
2022-11-17T05:41:25.105Z,98433.16
2022-11-17T05:43:52.638Z,98413.63
2022-11-17T05:46:20.885Z,98442.59
2022-11-17T05:48:50.470Z,98443.44
2022-11-17T05:51:19.844Z,98424.13
2022-11-17T05:53:47.489Z,98428.44
2022-11-17T05:56:31.015Z,98428.41
2022-11-17T05:59:28.471Z,98431.78
2022-11-17T06:02:04.589Z,98419.88
2022-11-17T06:04:31.622Z,98412.44
2022-11-17T06:07:00.165Z,98402.06
2022-11-17T06:09:30.230Z,98374.06
2022-11-17T06:12:01.095Z,98402.06
2022-11-17T06:14:31.910Z,98394.91
2022-11-17T06:17:08.432Z,98402.03
2022-11-17T06:19:39.953Z,98396.88
2022-11-17T06:22:14.542Z,98400.38
2022-11-17T06:24:44.850Z,98392.84
2022-11-17T06:27:14.959Z,98392.88
2022-11-17T06:29:44.807Z,98380.88
2022-11-17T06:32:14.725Z,98369.16
2022-11-17T06:34:43.397Z,98378.47
2022-11-17T06:37:11.415Z,98379.13
2022-11-17T06:39:38.534Z,98365.19
2022-11-17T06:42:05.175Z,98381.59
2022-11-17T06:44:31.714Z,98385.09
2022-11-17T06:46:58.308Z,98384.22
2022-11-17T06:49:25.460Z,98393.47
2022-11-17T06:51:52.163Z,98395.13
2022-11-17T06:54:19.247Z,98383.97
2022-11-17T06:56:46.166Z,98398.81
2022-11-17T06:59:12.893Z,98420.25
2022-11-17T07:01:39.948Z,98419.41
2022-11-17T07:04:07.554Z,98422.78
2022-11-17T07:06:36.844Z,98417.56
2022-11-17T07:09:04.635Z,98420.19
2022-11-17T07:11:31.225Z,98418.41
2022-11-17T07:13:58.463Z,98421.03
2022-11-17T07:16:25.079Z,98423.59
2022-11-17T07:18:53.211Z,98422.63
2022-11-17T07:21:20.006Z,98422.66
2022-11-17T07:23:46.645Z,98426.00
2022-11-17T07:26:14.369Z,98424.22
2022-11-17T07:28:40.991Z,98427.50
2022-11-17T07:31:08.888Z,98431.88
2022-11-17T07:33:35.910Z,98437.16
2022-11-17T07:36:11.117Z,98426.94
2022-11-17T07:38:40.082Z,98439.53
2022-11-17T07:41:08.833Z,98446.50
2022-11-17T07:43:37.179Z,98447.44
2022-11-17T07:46:07.092Z,98439.75
2022-11-17T07:48:34.575Z,98443.13
2022-11-17T07:51:03.278Z,98447.44
2022-11-17T07:53:31.633Z,98448.41
2022-11-17T07:56:06.345Z,98458.63
2022-11-17T07:58:33.156Z,98449.16
2022-11-17T08:01:00.426Z,98453.50
2022-11-17T08:03:27.011Z,98451.13
2022-11-17T08:05:53.649Z,98456.88
2022-11-17T08:08:20.256Z,98450.91
2022-11-17T08:10:46.837Z,98456.06
2022-11-17T08:13:15.425Z,98463.13
2022-11-17T08:15:41.947Z,98470.78
2022-11-17T08:18:08.467Z,98465.69
2022-11-17T08:20:35.017Z,98469.78
2022-11-17T08:23:02.330Z,98468.25
2022-11-17T08:25:28.914Z,98481.13
2022-11-17T08:27:59.222Z,98486.34
2022-11-17T08:30:26.524Z,98488.13
2022-11-17T08:32:54.571Z,98496.66
2022-11-17T08:35:23.850Z,98478.84
2022-11-17T08:37:50.402Z,98489.22
2022-11-17T08:40:18.270Z,98489.22
2022-11-17T08:42:45.341Z,98498.63
2022-11-17T08:45:13.056Z,98484.19
2022-11-17T08:47:40.709Z,98495.38
2022-11-17T08:50:07.760Z,98486.88
2022-11-17T08:52:34.417Z,98503.03
2022-11-17T08:55:01.105Z,98503.97
2022-11-17T08:57:30.488Z,98509.06
2022-11-17T08:59:57.251Z,98503.09
2022-11-17T09:02:23.889Z,98506.47
2022-11-17T09:04:50.730Z,98514.19
2022-11-17T09:07:18.054Z,98515.94
2022-11-17T09:09:46.234Z,98512.59
2022-11-17T09:12:12.810Z,98519.53
2022-11-17T09:14:39.405Z,98518.44
2022-11-17T09:17:06.275Z,98518.34
2022-11-17T09:19:32.935Z,98523.31
2022-11-17T09:22:00.007Z,98513.06
2022-11-17T09:24:26.832Z,98516.75
2022-11-17T09:26:54.734Z,98522.81
2022-11-17T09:29:21.356Z,98509.19
2022-11-17T09:31:47.974Z,98523.81
2022-11-17T09:34:14.723Z,98535.78
2022-11-17T09:36:42.229Z,98533.44
2022-11-17T09:39:08.995Z,98545.28
2022-11-17T09:41:43.476Z,98550.50
2022-11-17T09:44:39.919Z,98549.75
2022-11-17T09:47:31.437Z,98548.84
2022-11-17T09:50:29.089Z,98562.22
2022-11-17T09:53:15.312Z,98556.22
2022-11-17T09:55:47.079Z,98553.81
2022-11-17T09:58:18.362Z,98563.81
2022-11-17T10:00:52.762Z,98558.84
2022-11-17T10:03:22.607Z,98571.53
2022-11-17T10:05:50.715Z,98555.63
2022-11-17T10:08:21.979Z,98570.97
2022-11-17T10:10:50.503Z,98558.22
2022-11-17T10:13:37.951Z,98572.50
2022-11-17T10:16:07.836Z,98575.28
2022-11-17T10:18:39.532Z,98575.31
2022-11-17T10:21:07.621Z,98581.19
2022-11-17T10:23:41.130Z,98572.88
2022-11-17T10:26:14.019Z,98587.03
2022-11-17T10:28:40.779Z,98586.94
2022-11-17T10:31:12.873Z,98586.88
2022-11-17T10:33:44.836Z,98592.84
2022-11-17T10:36:23.060Z,98590.09
2022-11-17T10:38:52.606Z,98590.09
2022-11-17T10:41:23.105Z,98599.50
2022-11-17T10:44:03.516Z,98586.75
2022-11-17T10:46:38.380Z,98604.69
2022-11-17T10:49:24.785Z,98605.72
2022-11-17T10:52:06.783Z,98615.06
2022-11-17T10:54:33.390Z,98617.69
2022-11-17T10:57:02.214Z,98615.31
2022-11-17T10:59:32.849Z,98616.03
2022-11-17T11:02:25.022Z,98618.56
2022-11-17T11:05:12.407Z,98628.19
2022-11-17T11:07:40.386Z,98630.88
2022-11-17T11:10:16.781Z,98634.25
2022-11-17T11:12:49.604Z,98637.66
2022-11-17T11:15:22.838Z,98636.72
2022-11-17T11:17:49.933Z,98647.09
2022-11-17T11:20:21.135Z,98639.44
2022-11-17T11:23:09.247Z,98638.41
2022-11-17T11:25:44.082Z,98642.56
2022-11-17T11:28:21.343Z,98641.72
2022-11-17T11:31:20.198Z,98645.13
2022-11-17T11:34:24.313Z,98649.28
2022-11-17T11:36:55.688Z,98655.13
2022-11-17T11:39:36.820Z,98655.94
2022-11-17T11:42:34.485Z,98658.53
2022-11-17T11:45:22.721Z,98660.00
2022-11-17T11:48:27.248Z,98669.28
2022-11-17T11:50:58.882Z,98667.19
2022-11-17T11:53:26.097Z,98673.22
2022-11-17T11:56:07.637Z,98677.69
2022-11-17T11:58:35.303Z,98674.44
2022-11-17T12:01:07.027Z,98669.50
2022-11-17T12:03:44.104Z,98673.94
2022-11-17T12:06:53.991Z,98678.13
2022-11-17T12:09:23.186Z,98677.31
2022-11-17T12:12:01.560Z,98675.69
2022-11-17T12:14:33.915Z,98676.53
2022-11-17T12:17:23.324Z,98684.34
2022-11-17T12:19:54.146Z,98684.44
2022-11-17T12:22:29.561Z,98676.69
2022-11-17T12:25:18.505Z,98670.84
2022-11-17T12:27:47.511Z,98669.16
2022-11-17T12:30:33.349Z,98679.31
2022-11-17T12:33:01.298Z,98677.56
2022-11-17T12:35:41.836Z,98675.91
2022-11-17T12:38:17.388Z,98678.34
2022-11-17T12:40:44.484Z,98681.03
2022-11-17T12:43:37.102Z,98685.41
2022-11-17T12:46:15.844Z,98694.88
2022-11-17T12:49:07.492Z,98685.50
2022-11-17T12:52:05.648Z,98693.22
2022-11-17T12:54:47.904Z,98685.75
2022-11-17T12:57:23.520Z,98707.97
2022-11-17T13:00:12.097Z,98709.59
2022-11-17T13:02:58.092Z,98707.13
2022-11-17T13:05:27.802Z,98713.84
2022-11-17T13:08:16.176Z,98723.19
2022-11-17T13:10:43.227Z,98718.03
2022-11-17T13:13:27.947Z,98727.47
2022-11-17T13:15:58.800Z,98732.53
2022-11-17T13:18:33.181Z,98722.31
2022-11-17T13:21:00.828Z,98741.75
2022-11-17T13:23:33.720Z,98737.47
2022-11-17T13:26:18.581Z,98738.38
2022-11-17T13:28:46.831Z,98747.00
2022-11-17T13:31:23.931Z,98747.03
2022-11-17T13:34:26.024Z,98754.84
2022-11-17T13:36:53.677Z,98749.81
2022-11-17T13:39:24.348Z,98760.09
2022-11-17T13:41:54.572Z,98752.41
2022-11-17T13:44:24.857Z,98760.97
2022-11-17T13:46:51.470Z,98753.28
2022-11-17T13:49:50.529Z,98758.56
2022-11-17T13:52:42.000Z,98744.88
2022-11-17T13:55:20.164Z,98760.34
2022-11-17T13:58:08.421Z,98762.91
2022-11-17T14:00:35.137Z,98751.91
2022-11-17T14:03:22.781Z,98758.50
2022-11-17T14:05:58.727Z,98762.97
2022-11-17T14:08:29.832Z,98746.94
2022-11-17T14:11:15.309Z,98773.22
2022-11-17T14:13:42.404Z,98780.09
2022-11-17T14:16:38.445Z,98784.44
2022-11-17T14:19:25.368Z,98809.41
2022-11-17T14:22:03.163Z,98802.63
2022-11-17T14:24:32.281Z,98786.38
2022-11-17T14:26:59.064Z,98791.69
2022-11-17T14:29:27.935Z,98784.63
2022-11-17T14:31:55.188Z,98780.28
2022-11-17T14:34:22.123Z,98788.00
2022-11-17T14:36:54.369Z,98773.59
2022-11-17T14:39:21.656Z,98793.97
2022-11-17T14:41:50.233Z,98785.34
2022-11-17T14:44:16.827Z,98787.88
2022-11-17T14:46:44.587Z,98793.06
2022-11-17T14:49:11.849Z,98793.03
2022-11-17T14:51:38.982Z,98798.19
2022-11-17T14:54:06.035Z,98792.22
2022-11-17T14:56:33.180Z,98796.47
2022-11-17T14:59:00.975Z,98795.53
2022-11-17T15:01:31.574Z,98805.84
2022-11-17T15:04:15.508Z,98802.31
2022-11-17T15:06:48.120Z,98802.41
2022-11-17T15:09:16.492Z,98816.06
2022-11-17T15:11:43.608Z,98815.31
2022-11-17T15:14:10.872Z,98824.63
2022-11-17T15:16:37.464Z,98821.31
2022-11-17T15:19:04.047Z,98821.38
2022-11-17T15:21:33.673Z,98818.66
2022-11-17T15:24:02.354Z,98837.31
2022-11-17T15:26:29.086Z,98831.28
2022-11-17T15:28:57.946Z,98833.88
2022-11-17T15:31:24.515Z,98835.72
2022-11-17T15:33:51.147Z,98828.16
2022-11-17T15:36:19.501Z,98840.91
2022-11-17T15:38:47.574Z,98842.72
2022-11-17T15:41:15.877Z,98850.25
2022-11-17T15:43:45.189Z,98853.66
2022-11-17T15:46:17.155Z,98856.16
2022-11-17T15:48:45.701Z,98844.31
2022-11-17T15:51:15.200Z,98861.38
2022-11-17T15:53:43.476Z,98845.13
2022-11-17T15:56:21.065Z,98858.81
2022-11-17T15:58:49.511Z,98859.72
2022-11-17T16:01:39.080Z,98864.81
2022-11-17T16:04:11.644Z,98864.75
2022-11-17T16:06:41.235Z,98866.50
2022-11-17T16:09:09.531Z,98864.91
2022-11-17T16:11:37.020Z,98855.69
2022-11-17T16:14:04.476Z,98876.00
2022-11-17T16:16:34.478Z,98871.78
2022-11-17T16:19:01.260Z,98864.22
2022-11-17T16:21:27.965Z,98875.28
2022-11-17T16:23:57.086Z,98844.78
2022-11-17T16:26:25.981Z,98889.88
2022-11-17T16:29:00.858Z,98877.28
2022-11-17T16:31:29.987Z,98888.13
2022-11-17T16:33:59.299Z,98877.28
2022-11-17T16:36:34.317Z,98895.88
2022-11-17T16:39:05.909Z,98894.91
2022-11-17T16:41:37.765Z,98898.41
2022-11-17T16:44:10.259Z,98900.19
2022-11-17T16:46:38.179Z,98903.63
2022-11-17T16:49:07.440Z,98889.16
2022-11-17T16:51:34.724Z,98896.03
2022-11-17T16:54:04.576Z,98921.56
2022-11-17T16:56:33.170Z,98911.38
2022-11-17T16:59:00.240Z,98918.09
2022-11-17T17:01:30.533Z,98921.59
2022-11-17T17:04:03.021Z,98919.94
2022-11-17T17:06:30.326Z,98921.78
2022-11-17T17:08:59.120Z,98924.34
2022-11-17T17:11:28.032Z,98936.09
2022-11-17T17:13:56.528Z,98938.69
2022-11-17T17:16:24.248Z,98915.88
2022-11-17T17:18:59.720Z,98940.50
2022-11-17T17:21:27.329Z,98956.84
2022-11-17T17:23:54.672Z,98954.22
2022-11-17T17:26:23.018Z,98964.63
2022-11-17T17:28:52.214Z,98968.81
2022-11-17T17:31:22.157Z,98950.81
2022-11-17T17:33:50.830Z,98961.09
2022-11-17T17:36:21.882Z,98978.16
2022-11-17T17:38:54.909Z,98944.22
2022-11-17T17:41:23.313Z,98978.25
2022-11-17T17:43:57.225Z,98991.94
2022-11-17T17:46:24.521Z,98992.78
2022-11-17T17:48:52.628Z,98963.91
2022-11-17T17:51:21.481Z,99000.41
2022-11-17T17:53:50.304Z,98996.19
2022-11-17T17:56:19.489Z,99000.56
2022-11-17T17:58:48.818Z,99004.03
2022-11-17T18:01:25.011Z,99000.81
2022-11-17T18:03:53.959Z,98982.97
2022-11-17T18:06:22.532Z,99019.59
2022-11-17T18:08:50.391Z,99018.56
2022-11-17T18:11:20.269Z,99006.63
2022-11-17T18:13:52.322Z,99015.25
2022-11-17T18:16:25.082Z,99007.63
2022-11-17T18:18:57.607Z,99035.75
2022-11-17T18:21:24.421Z,99002.59
2022-11-17T18:23:53.488Z,99035.66
2022-11-17T18:26:22.763Z,99050.34
2022-11-17T18:28:55.957Z,99028.03
2022-11-17T18:31:24.284Z,99038.28
2022-11-17T18:33:58.683Z,99044.44
2022-11-17T18:36:26.278Z,99048.72
2022-11-17T18:38:53.545Z,99031.00
2022-11-17T18:41:21.879Z,99052.91
2022-11-17T18:43:48.785Z,99048.84
2022-11-17T18:46:18.960Z,99017.41
2022-11-17T18:48:47.843Z,99036.16
2022-11-17T18:51:19.972Z,99039.59
2022-11-17T18:53:48.457Z,99057.50
2022-11-17T18:56:17.506Z,99072.75
2022-11-17T18:58:44.106Z,99069.50
2022-11-17T19:01:14.732Z,99064.38
2022-11-17T19:03:42.957Z,99054.38
2022-11-17T19:06:11.415Z,99073.00
2022-11-17T19:08:38.539Z,99084.19
2022-11-17T19:11:07.310Z,99067.19
2022-11-17T19:13:36.746Z,99088.56
2022-11-17T19:16:12.440Z,99057.13
2022-11-17T19:18:40.219Z,99077.59
2022-11-17T19:21:09.563Z,99089.56
2022-11-17T19:23:38.503Z,99084.38
2022-11-17T19:26:06.553Z,99105.75
2022-11-17T19:28:33.658Z,99124.59
2022-11-17T19:31:05.926Z,99103.28
2022-11-17T19:33:34.215Z,99110.97
2022-11-17T19:36:13.687Z,99131.47
2022-11-17T19:38:41.663Z,99137.53
2022-11-17T19:41:10.376Z,99124.66
2022-11-17T19:43:43.408Z,99144.25
2022-11-17T19:46:14.529Z,99120.44
2022-11-17T19:48:42.456Z,99141.69
2022-11-17T19:51:20.781Z,99144.25
2022-11-17T19:53:48.961Z,99151.13
2022-11-17T19:56:16.311Z,99133.28
2022-11-17T19:58:43.785Z,99156.28
2022-11-17T20:01:16.061Z,99142.81
2022-11-17T20:03:43.536Z,99159.03
2022-11-17T20:06:12.362Z,99170.16
2022-11-17T20:08:39.393Z,99175.25
2022-11-17T20:11:10.981Z,99185.53
2022-11-17T20:13:38.712Z,99178.84
2022-11-17T20:16:12.072Z,99167.91
2022-11-17T20:18:39.532Z,99184.94
2022-11-17T20:21:07.068Z,99186.66
2022-11-17T20:23:35.160Z,99197.72
2022-11-17T20:26:13.952Z,99204.59
2022-11-17T20:28:41.185Z,99216.56
2022-11-17T20:31:10.225Z,99194.44
2022-11-17T20:33:41.954Z,99226.00
2022-11-17T20:36:11.593Z,99219.94
2022-11-17T20:38:38.564Z,99233.69
2022-11-17T20:41:06.060Z,99235.47
2022-11-17T20:43:34.751Z,99232.97
2022-11-17T20:46:03.044Z,99226.16
2022-11-17T20:48:30.332Z,99241.63
2022-11-17T20:50:57.359Z,99247.56
2022-11-17T20:53:24.704Z,99252.78
2022-11-17T20:55:51.848Z,99263.91
2022-11-17T20:58:18.421Z,99255.41
2022-11-17T21:00:45.200Z,99252.16
2022-11-17T21:03:11.823Z,99268.31
2022-11-17T21:05:38.903Z,99281.00
2022-11-17T21:08:06.080Z,99281.09
2022-11-17T21:10:32.644Z,99287.91
2022-11-17T21:12:59.972Z,99292.22
2022-11-17T21:15:27.329Z,99277.75
2022-11-17T21:18:12.554Z,99290.50
2022-11-17T21:20:39.641Z,99291.41
2022-11-17T21:23:07.683Z,99291.47
2022-11-17T21:25:35.784Z,99295.75
2022-11-17T21:28:03.039Z,99296.69
2022-11-17T21:30:30.268Z,99303.47
2022-11-17T21:32:57.328Z,99309.53
2022-11-17T21:35:24.477Z,99305.22
2022-11-17T21:37:52.015Z,99313.78
2022-11-17T21:40:21.231Z,99318.91
2022-11-17T21:42:48.017Z,99322.38
2022-11-17T21:45:14.844Z,99321.56
2022-11-17T21:47:41.424Z,99311.38
2022-11-17T21:50:08.711Z,99321.59
2022-11-17T21:52:35.723Z,99321.63
2022-11-17T21:55:02.379Z,99294.38
2022-11-17T21:57:29.468Z,99336.19
2022-11-17T21:59:56.088Z,99324.25
2022-11-17T22:02:22.690Z,99314.88
2022-11-17T22:04:49.380Z,99343.94
2022-11-17T22:07:16.675Z,99327.78
2022-11-17T22:09:43.291Z,99348.31
2022-11-17T22:12:09.895Z,99342.41
2022-11-17T22:14:36.492Z,99359.47
2022-11-17T22:17:03.553Z,99362.91
2022-11-17T22:19:30.241Z,99360.34
2022-11-17T22:21:57.013Z,99353.56
2022-11-17T22:24:23.627Z,99351.03
2022-11-17T22:26:51.785Z,99369.78
2022-11-17T22:29:21.400Z,99384.31
2022-11-17T22:31:49.127Z,99366.41
2022-11-17T22:34:16.359Z,99384.34
2022-11-17T22:36:43.155Z,99396.31
2022-11-17T22:39:09.821Z,99378.38
2022-11-17T22:41:36.640Z,99394.56
2022-11-17T22:44:03.854Z,99403.16
2022-11-17T22:46:30.535Z,99400.56
2022-11-17T22:48:57.276Z,99395.50
2022-11-17T22:51:43.306Z,99391.22
2022-11-17T22:54:10.703Z,99413.44
2022-11-17T22:56:37.337Z,99399.78
2022-11-17T22:59:04.782Z,99426.22
2022-11-17T23:01:31.481Z,99417.72
2022-11-17T23:03:58.360Z,99415.16
2022-11-17T23:06:27.321Z,99425.38
2022-11-17T23:08:55.625Z,99439.06
2022-11-17T23:11:39.053Z,99440.81
2022-11-17T23:14:07.942Z,99435.69
2022-11-17T23:16:36.057Z,99419.47
2022-11-17T23:19:03.223Z,99434.78
2022-11-17T23:21:30.454Z,99430.53
2022-11-17T23:23:57.322Z,99432.28
2022-11-17T23:26:24.538Z,99442.56
2022-11-17T23:28:51.108Z,99461.34
2022-11-17T23:31:18.917Z,99437.47
2022-11-17T23:33:47.652Z,99475.06
2022-11-17T23:36:16.948Z,99450.28
2022-11-17T23:38:44.325Z,99472.50
2022-11-17T23:41:13.990Z,99457.13
2022-11-17T23:43:41.341Z,99453.72
2022-11-17T23:46:14.931Z,99485.34
2022-11-17T23:48:42.465Z,99480.22
2022-11-17T23:51:13.840Z,99489.63
2022-11-17T23:53:41.315Z,99490.47
2022-11-17T23:56:09.452Z,99478.53
2022-11-17T23:58:37.097Z,99493.03
